METAR Data
IDs: Format: Raw Decoded Include TAF

Data at: 1126 UTC 28 Jul 2021

KO32 281110Z AUTO 34003KT 7SM CLR 22/14 A2997 RMK AO2
KO32 281050Z AUTO 34003KT 10SM CLR 23/14 A2996 RMK AO2
KO32 281030Z AUTO 31003KT 10SM CLR 22/14 A2996 RMK AO2
KO32 281010Z AUTO 33005KT 10SM CLR 23/14 A2995 RMK AO2
KO32 280950Z AUTO 32003KT 10SM CLR 23/15 A2995 RMK AO2
KO32 280930Z AUTO 29004KT 10SM CLR 22/15 A2995 RMK AO2
KO32 280910Z AUTO 33004KT 10SM CLR 23/14 A2995 RMK AO2
KO32 280850Z AUTO 36006KT 10SM CLR 23/14 A2994 RMK AO2
KO32 280830Z AUTO 34005KT 10SM CLR 23/14 A2994 RMK AO2
KO32 280810Z AUTO 31003KT 10SM CLR 23/14 A2994 RMK AO2
KO32 280750Z AUTO 34006KT 10SM CLR 24/14 A2994 RMK AO2
KO32 280730Z AUTO 31005KT 10SM CLR 25/14 A2994 RMK AO2
KO32 280710Z AUTO 31006KT 10SM CLR 27/13 A2994 RMK AO2
KO32 280645Z AUTO 33008KT 10SM CLR 28/13 A2993 RMK AO2
KO32 280625Z AUTO 32007KT 10SM CLR 28/13 A2993 RMK AO2
KO32 280605Z AUTO 31004KT 10SM CLR 29/13 A2992 RMK AO2
KO32 280545Z AUTO 31003KT 10SM CLR 29/13 A2992 RMK AO2
KO32 280525Z AUTO 31003KT 10SM CLR 29/14 A2992 RMK AO2
KO32 280505Z AUTO 32006KT 10SM CLR 29/13 A2991 RMK AO2
KO32 280445Z AUTO 31004KT 10SM CLR 30/13 A2990 RMK AO2
KO32 280425Z AUTO 31004KT 10SM CLR 31/14 A2989 RMK AO2
KO32 280405Z AUTO 32005KT 10SM CLR 32/13 A2989 RMK AO2
KO32 280345Z AUTO 32004KT 10SM CLR 31/14 A2988 RMK AO2
KO32 280325Z AUTO 30004KT 10SM CLR 33/14 A2987 RMK AO2
KO32 280305Z AUTO 30005KT 10SM CLR 33/14 A2986 RMK AO2
KO32 280245Z AUTO 29006KT 10SM CLR 33/17 A2986 RMK AO2
KO32 280225Z AUTO 30004KT 10SM CLR 36/14 A2985 RMK AO2
KO32 280205Z AUTO 30006KT 10SM CLR 37/14 A2985 RMK AO2
KO32 280145Z AUTO 29006KT 10SM CLR 37/15 A2985 RMK AO2
KO32 280125Z AUTO 30006KT 10SM CLR 39/13 A2984 RMK AO2
KO32 280105Z AUTO 29006KT 10SM CLR 39/12 A2985 RMK AO2
KO32 280045Z AUTO 29005KT 10SM CLR 39/13 A2985 RMK AO2
KO32 280025Z AUTO 30005KT 10SM CLR 39/14 A2986 RMK AO2
KO32 280005Z AUTO 31006KT 10SM CLR 39/13 A2987 RMK AO2
KO32 272345Z AUTO 27003KT 10SM CLR 39/14 A2987 RMK AO2
KO32 272325Z AUTO 29004KT 10SM CLR 39/13 A2988 RMK AO2
KO32 272305Z AUTO 28004KT 10SM CLR 39/14 A2988 RMK AO2
KO32 272245Z AUTO 27004KT 10SM CLR 39/14 A2989 RMK AO2
KO32 272225Z AUTO 25007KT 10SM CLR 38/17 A2990 RMK AO2
KO32 272205Z AUTO 30006KT 10SM CLR 38/17 A2991 RMK AO2
KO32 272145Z AUTO 27005KT 10SM CLR 38/15 A2991 RMK AO2
KO32 272125Z AUTO 27005KT 10SM CLR 38/15 A2992 RMK AO2
KO32 272105Z AUTO 25005KT 10SM CLR 37/15 A2992 RMK AO2
KO32 272045Z AUTO 29006KT 10SM CLR 37/15 A2993 RMK AO2
KO32 272025Z AUTO 26006KT 10SM CLR 36/15 A2993 RMK AO2
KO32 272005Z AUTO 26005KT 10SM CLR 35/16 A2994 RMK AO2
KO32 271945Z AUTO 26006KT 10SM CLR 35/16 A2994 RMK AO2
KO32 271925Z AUTO 27007KT 10SM CLR 34/15 A2995 RMK AO2
KO32 271905Z AUTO 28004KT 10SM CLR 34/15 A2996 RMK AO2
KO32 271845Z AUTO 24004KT 10SM CLR 33/16 A2996 RMK AO2
KO32 271825Z AUTO 25006KT 10SM CLR 33/18 A2996 RMK AO2
KO32 271805Z AUTO 25005KT 10SM CLR 32/17 A2996 RMK AO2
KO32 271745Z AUTO 26004KT 10SM CLR 31/18 A2997 RMK AO2
KO32 271725Z AUTO 23004KT 10SM CLR 30/19 A2997 RMK AO2
KO32 271705Z AUTO 24004KT 10SM CLR 29/18 A2997 RMK AO2
KO32 271645Z AUTO 24004KT 10SM CLR 29/18 A2997 RMK AO2
KO32 271625Z AUTO 26003KT 10SM CLR 28/18 A2997 RMK AO2
KO32 271605Z AUTO 22003KT 10SM CLR 28/18 A2997 RMK AO2
KO32 271545Z AUTO 21003KT 9SM CLR 28/18 A2997 RMK AO2
KO32 271525Z AUTO 20003KT 10SM CLR 27/19 A2997 RMK AO2
KO32 271505Z AUTO 00000KT 10SM CLR 26/18 A2997 RMK AO2
KO32 271445Z AUTO 00000KT 10SM CLR 26/18 A2996 RMK AO2
KO32 271425Z AUTO 08003KT 10SM CLR 25/18 A2996 RMK AO2
KO32 271405Z AUTO 00000KT 10SM CLR 24/18 A2995 RMK AO2
KO32 271345Z AUTO 13003KT 10SM CLR 22/18 A2995 RMK AO2
KO32 271325Z AUTO 00000KT 10SM CLR 22/18 A2994 RMK AO2
KO32 271305Z AUTO 08003KT 10SM CLR 22/18 A2994 RMK AO2
KO32 271245Z AUTO 00000KT 10SM CLR 22/18 A2993 RMK AO2
KO32 271225Z AUTO 00000KT 10SM CLR 23/18 A2992 RMK AO2
KO32 271205Z AUTO 00000KT 10SM CLR 23/18 A2992 RMK AO2
KO32 271145Z AUTO 00000KT 10SM CLR 23/18 A2992 RMK AO2
KO32 271125Z AUTO 00000KT 10SM CLR 23/18 A2992 RMK AO2
KO32 271105Z AUTO 00000KT 10SM CLR 23/18 A2991 RMK AO2
KO32 271045Z AUTO 28003KT 10SM CLR 23/18 A2991 RMK AO2
KO32 271025Z AUTO 19003KT 10SM CLR 24/18 A2991 RMK AO2
KO32 271005Z AUTO 00000KT 10SM CLR 25/17 A2991 RMK AO2
KO32 270945Z AUTO 09004KT 10SM CLR 26/16 A2990 RMK AO2
KO32 270925Z AUTO 09006KT 10SM CLR 26/16 A2991 RMK AO2
KO32 270905Z AUTO 08005KT 10SM CLR 25/17 A2991 RMK AO2
KO32 270845Z AUTO 09006KT 10SM CLR 26/17 A2991 RMK AO2
KO32 270825Z AUTO 10004KT 10SM CLR 26/16 A2991 RMK AO2
KO32 270805Z AUTO 00000KT 10SM CLR 26/16 A2991 RMK AO2
KO32 270745Z AUTO 00000KT 10SM CLR 27/15 A2991 RMK AO2
KO32 270725Z AUTO 00000KT 10SM CLR 27/14 A2991 RMK AO2
KO32 270705Z AUTO 00000KT 10SM FEW038 27/14 A2991 RMK AO2 LTG DSNT SE
KO32 270645Z AUTO 00000KT 10SM FEW110 27/15 A2991 RMK AO2
KO32 270625Z AUTO 00000KT 10SM FEW110 26/14 A2991 RMK AO2
KO32 270605Z AUTO 00000KT 10SM CLR 26/15 A2992 RMK AO2
KO32 270545Z AUTO 00000KT 10SM CLR 26/15 A2992 RMK AO2
KO32 270525Z AUTO 00000KT 10SM CLR 27/14 A2992 RMK AO2
KO32 270505Z AUTO 00000KT 10SM CLR 28/14 A2992 RMK AO2
KO32 270445Z AUTO 00000KT 10SM CLR 29/13 A2991 RMK AO2
KO32 270430Z AUTO 11003KT 10SM CLR 28/13 A2991 RMK AO2
KO32 270410Z AUTO 10006KT 10SM CLR 28/12 A2990 RMK AO2
KO32 270350Z AUTO 10006KT 10SM CLR 28/12 A2989 RMK AO2
KO32 270330Z AUTO 09003KT 10SM CLR 29/12 A2989 RMK AO2
KO32 270310Z AUTO 00000KT 10SM CLR 29/12 A2988 RMK AO2
KO32 270250Z AUTO 14004KT 10SM CLR 30/12 A2989 RMK AO2
KO32 270230Z AUTO 16004KT 10SM CLR 30/11 A2989 RMK AO2
KO32 270210Z AUTO 18006KT 10SM CLR 31/10 A2988 RMK AO2
KO32 270150Z AUTO 18006KT 10SM CLR 31/10 A2988 RMK AO2
KO32 270130Z AUTO 19006KT 10SM CLR 32/10 A2987 RMK AO2
KO32 270110Z AUTO 19011G16KT 10SM CLR 32/09 A2987 RMK AO2
KO32 270050Z AUTO 20004KT 10SM CLR 34/13 A2987 RMK AO2
KO32 270030Z AUTO 24004KT 10SM CLR 34/12 A2986 RMK AO2
KO32 270010Z AUTO 18006KT 10SM CLR 35/10 A2987 RMK AO2
KO32 262350Z AUTO 20006KT 10SM CLR 35/10 A2987 RMK AO2
KO32 262330Z AUTO 19004KT 10SM CLR 35/10 A2987 RMK AO2